createdAt,value
2022-10-04T00:02:22.161Z,7.93
2022-10-04T00:05:05.195Z,5.43
2022-10-04T00:07:41.496Z,8.77
2022-10-04T00:10:38.432Z,3.65
2022-10-04T00:13:20.840Z,7.13
2022-10-04T00:15:52.925Z,4.47
2022-10-04T00:18:42.838Z,8.85
2022-10-04T00:21:12.303Z,6.22
2022-10-04T00:23:47.268Z,4.28
2022-10-04T00:27:15.251Z,5.03
2022-10-04T00:32:50.878Z,2.88
2022-10-04T00:35:49.795Z,3.65
2022-10-04T00:38:29.894Z,2.75
2022-10-04T00:41:10.680Z,3.08
2022-10-04T00:43:51.016Z,3.20
2022-10-04T00:46:29.062Z,5.70
2022-10-04T00:49:07.575Z,6.15
2022-10-04T00:54:35.225Z,3.20
2022-10-04T00:57:17.472Z,3.97
2022-10-04T00:59:57.308Z,4.10
2022-10-04T01:02:58.718Z,3.53
2022-10-04T01:05:43.918Z,4.30
2022-10-04T01:08:27.147Z,2.20
2022-10-04T01:11:18.089Z,2.03
2022-10-04T01:14:16.054Z,5.55
2022-10-04T01:16:47.264Z,5.75
2022-10-04T01:19:33.257Z,3.30
2022-10-04T01:22:19.471Z,3.10
2022-10-04T01:24:51.756Z,4.53
2022-10-04T01:27:44.818Z,4.55
2022-10-04T01:30:18.757Z,1.67
2022-10-04T01:32:48.009Z,7.32
2022-10-04T01:35:20.165Z,4.88
2022-10-04T01:37:52.197Z,2.17
2022-10-04T01:40:24.631Z,4.13
2022-10-04T01:43:08.451Z,7.07
2022-10-04T01:46:03.262Z,3.58
2022-10-04T01:48:39.721Z,10.90
2022-10-04T01:51:35.728Z,1.90
2022-10-04T01:54:24.087Z,6.22
2022-10-04T02:00:02.250Z,6.95
2022-10-04T02:03:07.122Z,3.45
2022-10-04T02:05:44.073Z,3.13
2022-10-04T02:08:20.280Z,5.80
2022-10-04T02:10:54.560Z,3.20
2022-10-04T02:13:30.485Z,3.22
2022-10-04T02:16:01.628Z,5.05
2022-10-04T02:18:35.241Z,3.80
2022-10-04T02:21:08.694Z,3.78
2022-10-04T02:23:42.335Z,5.40
2022-10-04T02:26:13.750Z,5.50
2022-10-04T02:28:43.008Z,7.38
2022-10-04T02:31:25.011Z,3.38
2022-10-04T02:33:59.877Z,9.05
2022-10-04T02:36:31.297Z,10.68
2022-10-04T02:39:45.286Z,8.13
2022-10-04T02:42:56.476Z,12.07
2022-10-04T02:46:19.116Z,4.47
2022-10-04T02:49:00.396Z,2.95
2022-10-04T02:52:00.381Z,2.22
2022-10-04T02:55:04.231Z,6.47
2022-10-04T02:57:36.210Z,6.13
2022-10-04T03:00:25.919Z,4.28
2022-10-04T03:03:31.434Z,5.72
2022-10-04T03:06:12.645Z,5.03
2022-10-04T03:09:00.147Z,3.97
2022-10-04T03:11:39.556Z,15.37
2022-10-04T03:14:16.318Z,9.45
2022-10-04T03:16:49.780Z,8.63
2022-10-04T03:19:21.997Z,7.03
2022-10-04T03:21:56.194Z,4.65
2022-10-04T03:24:47.948Z,10.75
2022-10-04T03:27:38.419Z,18.90
2022-10-04T03:30:08.626Z,7.13
2022-10-04T03:32:39.714Z,4.38
2022-10-04T03:35:31.489Z,3.03
2022-10-04T03:38:04.214Z,4.85
2022-10-04T03:40:35.400Z,4.68
2022-10-04T03:43:07.020Z,3.65
2022-10-04T03:45:37.083Z,7.85
2022-10-04T03:48:14.383Z,13.82
2022-10-04T03:50:51.213Z,7.53
2022-10-04T03:53:44.092Z,6.45
2022-10-04T03:56:36.754Z,4.55
2022-10-04T03:59:08.158Z,3.45
2022-10-04T04:02:19.877Z,8.35
2022-10-04T04:05:16.601Z,11.35
2022-10-04T04:08:34.344Z,6.55
2022-10-04T04:11:08.294Z,8.25
2022-10-04T04:14:06.583Z,6.97
2022-10-04T04:16:38.698Z,5.05
2022-10-04T04:19:17.628Z,3.53
2022-10-04T04:21:48.152Z,9.82
2022-10-04T04:24:33.052Z,9.80
2022-10-04T04:27:06.227Z,8.75
2022-10-04T04:29:50.813Z,7.07
2022-10-04T04:32:37.821Z,11.20
2022-10-04T04:35:21.575Z,5.45
2022-10-04T04:38:26.189Z,7.65
2022-10-04T04:40:56.667Z,7.22
2022-10-04T04:43:30.132Z,9.70
2022-10-04T04:46:25.512Z,7.68
2022-10-04T04:48:57.387Z,8.77
2022-10-04T04:51:27.191Z,9.18
2022-10-04T04:53:59.708Z,12.05
2022-10-04T04:56:31.881Z,8.18
2022-10-04T04:59:08.193Z,9.43
2022-10-04T05:01:51.041Z,6.60
2022-10-04T05:04:24.355Z,4.25
2022-10-04T05:07:07.454Z,6.50
2022-10-04T05:09:42.614Z,5.47
2022-10-04T05:12:24.089Z,7.53
2022-10-04T05:14:58.048Z,5.80
2022-10-04T05:17:36.130Z,8.38
2022-10-04T05:20:06.496Z,6.65
2022-10-04T05:22:36.975Z,7.07
2022-10-04T05:25:30.823Z,12.88
2022-10-04T05:28:00.576Z,9.18
2022-10-04T05:31:28.787Z,9.57
2022-10-04T05:34:00.568Z,8.10
2022-10-04T05:37:12.023Z,14.98
2022-10-04T05:40:15.158Z,7.95
2022-10-04T05:42:50.418Z,9.10
2022-10-04T05:45:28.184Z,6.72
2022-10-04T05:48:07.713Z,8.93
2022-10-04T05:50:44.961Z,11.52
2022-10-04T05:53:36.852Z,16.55
2022-10-04T05:56:47.666Z,9.77
2022-10-04T06:00:04.647Z,13.13
2022-10-04T06:03:05.091Z,10.93
2022-10-04T06:06:13.074Z,10.63
2022-10-04T06:12:31.197Z,12.88
2022-10-04T06:15:34.739Z,13.57
2022-10-04T06:18:56.171Z,14.30
2022-10-04T06:21:30.626Z,8.90
2022-10-04T06:24:23.910Z,16.10
2022-10-04T06:27:17.448Z,15.23
2022-10-04T06:30:12.128Z,12.15
2022-10-04T06:33:26.513Z,8.25
2022-10-04T06:36:48.036Z,13.88
2022-10-04T06:40:04.502Z,15.65
2022-10-04T06:43:12.369Z,10.55
2022-10-04T06:49:18.519Z,16.00
2022-10-04T06:52:35.663Z,12.02
2022-10-04T06:55:49.190Z,15.77
2022-10-04T06:59:01.855Z,10.85
2022-10-04T07:01:39.690Z,12.35
2022-10-04T07:05:07.667Z,12.80
2022-10-04T07:07:42.919Z,12.93
2022-10-04T07:10:52.986Z,16.10
2022-10-04T07:14:06.157Z,9.57
2022-10-04T07:17:06.170Z,17.02
2022-10-04T07:19:50.586Z,13.07
2022-10-04T07:22:46.425Z,6.32
2022-10-04T07:25:45.430Z,9.23
2022-10-04T07:28:39.169Z,7.47
2022-10-04T07:31:31.538Z,8.07
2022-10-04T07:34:17.750Z,10.15
2022-10-04T07:36:54.764Z,8.43
2022-10-04T07:39:53.427Z,12.73
2022-10-04T07:42:48.350Z,16.05
2022-10-04T07:45:40.962Z,12.10
2022-10-04T07:48:26.962Z,11.65
2022-10-04T07:51:37.985Z,13.25
2022-10-04T07:54:36.681Z,10.63
2022-10-04T07:57:28.589Z,13.27
2022-10-04T08:00:42.565Z,11.55
2022-10-04T08:04:03.118Z,6.28
2022-10-04T08:07:06.753Z,7.47
2022-10-04T08:10:29.020Z,6.15
2022-10-04T08:13:34.446Z,8.30
2022-10-04T08:16:32.988Z,10.52
2022-10-04T08:19:41.541Z,9.38
2022-10-04T08:22:51.466Z,6.25
2022-10-04T08:26:12.826Z,9.65
2022-10-04T08:29:30.813Z,11.35
2022-10-04T08:32:44.808Z,10.65
2022-10-04T08:35:43.946Z,5.57
2022-10-04T08:38:57.937Z,10.15
2022-10-04T08:42:18.466Z,6.18
2022-10-04T08:45:33.388Z,6.28
2022-10-04T08:48:37.216Z,9.70
2022-10-04T08:51:52.215Z,11.05
2022-10-04T08:55:06.479Z,6.43
2022-10-04T08:58:18.037Z,8.10
2022-10-04T09:01:07.486Z,14.52
2022-10-04T09:04:21.904Z,10.13
2022-10-04T09:07:35.049Z,7.50
2022-10-04T09:10:48.816Z,15.63
2022-10-04T09:13:54.562Z,8.50
2022-10-04T09:17:09.414Z,11.60
2022-10-04T09:20:41.097Z,6.93
2022-10-04T09:24:01.701Z,6.97
2022-10-04T09:27:04.681Z,5.50
2022-10-04T09:30:15.573Z,7.53
2022-10-04T09:33:36.273Z,8.95
2022-10-04T09:36:56.851Z,8.43
2022-10-04T09:40:18.235Z,7.35
2022-10-04T09:43:31.441Z,9.38
2022-10-04T09:47:00.962Z,10.52
2022-10-04T09:50:14.785Z,12.77
2022-10-04T09:53:32.017Z,6.75
2022-10-04T09:56:38.352Z,6.88
2022-10-04T10:00:08.353Z,6.45
2022-10-04T10:03:21.237Z,8.98
2022-10-04T10:06:13.940Z,12.63
2022-10-04T10:09:12.604Z,10.57
2022-10-04T10:12:37.984Z,15.80
2022-10-04T10:15:56.957Z,9.30
2022-10-04T10:19:00.089Z,6.32
2022-10-04T10:21:58.246Z,21.38
2022-10-04T10:25:09.516Z,12.93
2022-10-04T10:28:30.002Z,12.40
2022-10-04T10:31:47.600Z,10.70
2022-10-04T10:35:09.745Z,20.55
2022-10-04T10:38:23.130Z,16.75
2022-10-04T10:41:33.267Z,10.65
2022-10-04T10:44:44.615Z,8.68
2022-10-04T10:47:57.133Z,9.88
2022-10-04T10:51:04.354Z,13.85
2022-10-04T10:54:10.210Z,16.20
2022-10-04T10:57:38.137Z,12.27
2022-10-04T11:00:36.341Z,13.85
2022-10-04T11:03:49.600Z,11.52
2022-10-04T11:07:07.350Z,13.40
2022-10-04T11:10:13.150Z,19.83
2022-10-04T11:13:27.524Z,11.80
2022-10-04T11:16:41.596Z,16.20
2022-10-04T11:19:54.746Z,14.02
2022-10-04T11:23:08.371Z,14.10
2022-10-04T11:26:14.865Z,17.75
2022-10-04T11:29:15.550Z,21.73
2022-10-04T11:32:32.273Z,20.50
2022-10-04T11:35:38.857Z,16.95
2022-10-04T11:38:49.538Z,10.95
2022-10-04T11:42:06.444Z,11.25
2022-10-04T11:45:34.416Z,14.23
2022-10-04T11:48:33.483Z,12.85
2022-10-04T11:51:39.240Z,12.40
2022-10-04T11:54:52.359Z,12.60
2022-10-04T11:58:00.653Z,13.38
2022-10-04T12:01:04.098Z,11.88
2022-10-04T12:04:15.612Z,9.38
2022-10-04T12:07:35.163Z,12.35
2022-10-04T12:10:35.482Z,12.18
2022-10-04T12:13:33.458Z,7.03
2022-10-04T12:16:42.301Z,18.88
2022-10-04T12:20:11.925Z,11.43
2022-10-04T12:23:38.815Z,10.15
2022-10-04T12:27:06.757Z,15.30
2022-10-04T12:30:16.493Z,12.48
2022-10-04T12:33:22.024Z,11.07
2022-10-04T12:36:34.276Z,9.57
2022-10-04T12:39:45.457Z,11.98
2022-10-04T12:42:50.508Z,11.27
2022-10-04T12:45:58.248Z,15.95
2022-10-04T12:49:00.897Z,10.15
2022-10-04T12:52:12.981Z,13.02
2022-10-04T12:55:00.917Z,7.47
2022-10-04T12:58:07.534Z,5.22
2022-10-04T13:00:49.758Z,3.33
2022-10-04T13:03:55.991Z,5.90
2022-10-04T13:07:15.658Z,2.13
2022-10-04T13:10:29.595Z,3.83
2022-10-04T13:13:51.345Z,3.80
2022-10-04T13:20:27.319Z,4.63
2022-10-04T13:23:33.120Z,4.13
2022-10-04T13:26:38.513Z,3.28
2022-10-04T13:29:37.453Z,5.85
2022-10-04T13:32:30.898Z,4.85
2022-10-04T13:35:36.941Z,6.60
2022-10-04T13:38:56.026Z,7.28
2022-10-04T13:42:16.601Z,6.95
2022-10-04T13:45:27.614Z,5.57
2022-10-04T13:48:43.540Z,4.03
2022-10-04T13:51:42.399Z,3.38
2022-10-04T13:54:51.460Z,6.25
2022-10-04T13:58:08.764Z,5.97
2022-10-04T14:01:23.470Z,6.65
2022-10-04T14:04:43.553Z,6.32
2022-10-04T14:08:04.099Z,3.42
2022-10-04T14:11:24.980Z,8.02
2022-10-04T14:14:53.168Z,9.88
2022-10-04T14:18:23.553Z,10.90
2022-10-04T14:21:40.390Z,6.43
2022-10-04T14:24:49.131Z,10.38
2022-10-04T14:28:04.672Z,7.43
2022-10-04T14:31:22.186Z,11.85
2022-10-04T14:34:38.716Z,6.28
2022-10-04T14:37:55.015Z,6.13
2022-10-04T14:41:06.008Z,6.70
2022-10-04T14:44:11.750Z,5.00
2022-10-04T14:47:32.374Z,6.25
2022-10-04T14:50:50.086Z,7.32
2022-10-04T14:54:06.784Z,10.10
2022-10-04T14:57:21.203Z,7.97
2022-10-04T15:00:24.867Z,13.05
2022-10-04T15:03:48.470Z,7.60
2022-10-04T15:06:54.227Z,7.72
2022-10-04T15:10:13.696Z,6.47
2022-10-04T15:13:24.481Z,6.97
2022-10-04T15:16:34.899Z,5.75
2022-10-04T15:19:38.614Z,9.73
2022-10-04T15:22:48.770Z,7.75
2022-10-04T15:25:48.305Z,6.55
2022-10-04T15:29:08.076Z,4.55
2022-10-04T15:31:58.549Z,6.68
2022-10-04T15:35:07.040Z,8.18
2022-10-04T15:38:15.383Z,6.22
2022-10-04T15:41:19.857Z,5.72
2022-10-04T15:44:29.913Z,3.08
2022-10-04T15:47:35.753Z,7.85
2022-10-04T15:50:44.244Z,4.25
2022-10-04T15:54:00.380Z,3.88
2022-10-04T15:56:55.946Z,6.35
2022-10-04T16:00:03.345Z,3.85
2022-10-04T16:03:11.912Z,2.58
2022-10-04T16:06:09.177Z,5.22
2022-10-04T16:09:38.549Z,5.28
2022-10-04T16:12:30.745Z,4.10
2022-10-04T16:15:33.947Z,4.63
2022-10-04T16:18:43.815Z,5.75
2022-10-04T16:21:55.784Z,4.00
2022-10-04T16:24:50.527Z,4.20
2022-10-04T16:28:05.858Z,5.50
2022-10-04T16:31:09.410Z,4.75
2022-10-04T16:33:56.102Z,5.10
2022-10-04T16:36:43.988Z,6.68
2022-10-04T16:39:43.847Z,4.93
2022-10-04T16:42:18.777Z,3.47
2022-10-04T16:45:31.951Z,7.90
2022-10-04T16:48:29.040Z,6.93
2022-10-04T16:51:49.540Z,12.40
2022-10-04T16:54:58.816Z,11.50
2022-10-04T16:57:28.901Z,10.43
2022-10-04T17:00:34.839Z,7.65
2022-10-04T17:03:31.878Z,7.65
2022-10-04T17:06:32.285Z,7.78
2022-10-04T17:09:50.117Z,8.23
2022-10-04T17:12:54.139Z,9.57
2022-10-04T17:16:00.357Z,11.82
2022-10-04T17:19:30.044Z,6.75
2022-10-04T17:22:35.819Z,5.57
2022-10-04T17:25:45.647Z,9.77
2022-10-04T17:28:36.288Z,8.18
2022-10-04T17:31:26.912Z,7.47
2022-10-04T17:34:40.093Z,7.30
2022-10-04T17:38:00.638Z,8.10
2022-10-04T17:41:25.552Z,13.68
2022-10-04T17:44:28.472Z,4.95
2022-10-04T17:47:24.820Z,10.45
2022-10-04T17:50:32.139Z,9.02
2022-10-04T17:53:30.743Z,6.47
2022-10-04T17:56:04.055Z,5.22
2022-10-04T17:58:54.971Z,3.85
2022-10-04T18:01:51.103Z,11.18
2022-10-04T18:04:29.018Z,7.03
2022-10-04T18:07:20.474Z,9.98
2022-10-04T18:10:39.643Z,10.88
2022-10-04T18:13:31.702Z,5.50
2022-10-04T18:16:33.486Z,11.75
2022-10-04T18:19:55.833Z,11.18
2022-10-04T18:22:30.276Z,5.65
2022-10-04T18:25:27.199Z,8.13
2022-10-04T18:28:21.946Z,7.93
2022-10-04T18:31:06.267Z,8.45
2022-10-04T18:33:52.405Z,5.50
2022-10-04T18:36:32.936Z,9.25
2022-10-04T18:39:23.743Z,7.18
2022-10-04T18:42:24.704Z,5.75
2022-10-04T18:45:24.696Z,6.47
2022-10-04T18:47:58.832Z,6.03
2022-10-04T18:50:45.906Z,9.23
2022-10-04T18:53:49.005Z,8.55
2022-10-04T18:56:21.575Z,7.72
2022-10-04T18:59:40.336Z,5.93
2022-10-04T19:03:11.362Z,7.15
2022-10-04T19:06:20.994Z,8.45
2022-10-04T19:09:26.202Z,8.52
2022-10-04T19:12:19.890Z,8.48
2022-10-04T19:15:30.823Z,4.13
2022-10-04T19:18:51.603Z,12.27
2022-10-04T19:22:12.236Z,9.52
2022-10-04T19:25:35.941Z,6.20
2022-10-04T19:28:36.443Z,10.25
2022-10-04T19:31:49.255Z,8.77
2022-10-04T19:34:54.968Z,7.47
2022-10-04T19:38:11.157Z,7.72
2022-10-04T19:40:55.059Z,6.13
2022-10-04T19:44:11.302Z,11.07
2022-10-04T19:47:23.211Z,7.80
2022-10-04T19:50:22.488Z,10.75
2022-10-04T19:53:04.383Z,14.82
2022-10-04T19:55:56.876Z,11.00
2022-10-04T19:58:48.250Z,9.57
2022-10-04T20:01:25.052Z,6.10
2022-10-04T20:04:08.475Z,12.18
2022-10-04T20:06:39.364Z,6.10
2022-10-04T20:09:59.884Z,10.98
2022-10-04T20:13:04.927Z,10.07
2022-10-04T20:16:00.705Z,7.53
2022-10-04T20:18:59.951Z,7.28
2022-10-04T20:21:34.067Z,8.75
2022-10-04T20:24:05.431Z,6.07
2022-10-04T20:27:07.672Z,6.68
2022-10-04T20:30:04.966Z,10.82
2022-10-04T20:32:58.649Z,12.27
2022-10-04T20:36:02.129Z,6.55
2022-10-04T20:39:01.903Z,8.07
2022-10-04T20:42:00.227Z,9.70
2022-10-04T20:45:02.713Z,7.97
2022-10-04T20:47:58.756Z,8.25
2022-10-04T20:50:39.099Z,6.63
2022-10-04T20:53:32.730Z,7.32
2022-10-04T20:56:32.348Z,5.55
2022-10-04T20:59:04.264Z,5.80
2022-10-04T21:01:38.583Z,6.10
2022-10-04T21:04:42.008Z,11.30
2022-10-04T21:07:18.104Z,5.90
2022-10-04T21:09:47.714Z,10.30
2022-10-04T21:12:39.260Z,5.90
2022-10-04T21:15:23.846Z,6.15
2022-10-04T21:18:07.047Z,11.95
2022-10-04T21:20:51.337Z,6.93
2022-10-04T21:23:38.926Z,6.72
2022-10-04T21:26:26.982Z,6.03
2022-10-04T21:29:00.622Z,8.73
2022-10-04T21:31:29.848Z,7.75
2022-10-04T21:33:59.035Z,7.22
2022-10-04T21:36:28.182Z,11.00
2022-10-04T21:38:57.314Z,4.15
2022-10-04T21:41:26.392Z,7.13
2022-10-04T21:43:55.435Z,8.25
2022-10-04T21:46:24.534Z,4.95
2022-10-04T21:48:53.706Z,6.10
2022-10-04T21:51:22.813Z,6.43
2022-10-04T21:53:52.367Z,5.00
2022-10-04T21:56:21.444Z,6.68
2022-10-04T21:58:50.620Z,7.53
2022-10-04T22:01:19.735Z,6.40
2022-10-04T22:03:48.987Z,5.85
2022-10-04T22:06:18.795Z,8.65
2022-10-04T22:08:48.136Z,4.90
2022-10-04T22:11:17.330Z,4.97
2022-10-04T22:13:47.760Z,7.15
2022-10-04T22:16:17.543Z,9.35
2022-10-04T22:18:46.756Z,6.63
2022-10-04T22:21:15.935Z,10.18
2022-10-04T22:23:46.714Z,10.68
2022-10-04T22:26:23.553Z,7.82
2022-10-04T22:28:57.168Z,17.98
2022-10-04T22:31:30.988Z,7.28
2022-10-04T22:34:00.293Z,9.65
2022-10-04T22:36:50.480Z,11.52
2022-10-04T22:39:22.108Z,10.98
2022-10-04T22:41:58.682Z,12.07
2022-10-04T22:44:37.108Z,10.00
2022-10-04T22:49:48.071Z,7.88
2022-10-04T22:52:23.229Z,8.45
2022-10-04T22:54:58.196Z,9.15
2022-10-04T22:57:31.459Z,11.75
2022-10-04T23:00:00.591Z,11.18
2022-10-04T23:02:32.261Z,7.93
2022-10-04T23:05:21.324Z,19.38
2022-10-04T23:07:51.076Z,14.95
2022-10-04T23:10:21.831Z,9.77
2022-10-04T23:12:51.714Z,12.30
2022-10-04T23:15:22.757Z,16.65
2022-10-04T23:17:56.813Z,15.13
2022-10-04T23:20:26.349Z,15.25
2022-10-04T23:23:00.683Z,18.40
2022-10-04T23:25:31.659Z,19.17
2022-10-04T23:28:12.825Z,23.33
2022-10-04T23:30:42.549Z,22.00
2022-10-04T23:33:24.879Z,21.73
2022-10-04T23:35:56.347Z,25.40
2022-10-04T23:38:26.408Z,24.40
2022-10-04T23:40:55.623Z,21.77
2022-10-04T23:43:27.796Z,26.17
2022-10-04T23:45:59.587Z,27.50
2022-10-04T23:48:32.960Z,29.75
2022-10-04T23:51:02.354Z,22.95
2022-10-04T23:53:34.798Z,26.95
2022-10-04T23:56:13.739Z,27.05
2022-10-04T23:58:46.859Z,25.33
